sensor_id;sensor_type;location;lat;lon;timestamp;P1;durP1;ratioP1;P2;durP2;ratioP2
22289;SDS011;11313;50.116;8.424;2023-04-12T00:02:14;2.17;;;1.60;;
22289;SDS011;11313;50.116;8.424;2023-04-12T00:04:39;2.40;;;1.70;;
22289;SDS011;11313;50.116;8.424;2023-04-12T00:07:05;3.55;;;1.98;;
22289;SDS011;11313;50.116;8.424;2023-04-12T00:09:33;2.47;;;1.35;;
22289;SDS011;11313;50.116;8.424;2023-04-12T00:12:00;2.00;;;1.48;;
22289;SDS011;11313;50.116;8.424;2023-04-12T00:14:26;2.40;;;1.50;;
22289;SDS011;11313;50.116;8.424;2023-04-12T00:16:53;2.03;;;1.80;;
22289;SDS011;11313;50.116;8.424;2023-04-12T00:19:19;1.55;;;1.40;;
22289;SDS011;11313;50.116;8.424;2023-04-12T00:21:44;1.88;;;1.50;;
22289;SDS011;11313;50.116;8.424;2023-04-12T00:24:10;2.65;;;1.60;;
22289;SDS011;11313;50.116;8.424;2023-04-12T00:26:35;2.38;;;1.55;;
22289;SDS011;11313;50.116;8.424;2023-04-12T00:29:01;3.30;;;1.40;;
22289;SDS011;11313;50.116;8.424;2023-04-12T00:31:26;1.60;;;1.42;;
22289;SDS011;11313;50.116;8.424;2023-04-12T00:33:52;2.40;;;1.50;;
22289;SDS011;11313;50.116;8.424;2023-04-12T00:36:17;1.73;;;1.40;;
22289;SDS011;11313;50.116;8.424;2023-04-12T00:38:43;3.25;;;1.65;;
22289;SDS011;11313;50.116;8.424;2023-04-12T00:41:12;2.20;;;1.38;;
22289;SDS011;11313;50.116;8.424;2023-04-12T00:43:39;2.03;;;1.50;;
22289;SDS011;11313;50.116;8.424;2023-04-12T00:46:05;1.85;;;1.50;;
22289;SDS011;11313;50.116;8.424;2023-04-12T00:48:31;2.00;;;1.80;;
22289;SDS011;11313;50.116;8.424;2023-04-12T00:50:57;2.03;;;1.73;;
22289;SDS011;11313;50.116;8.424;2023-04-12T00:53:24;2.05;;;1.40;;
22289;SDS011;11313;50.116;8.424;2023-04-12T00:55:51;1.63;;;1.20;;
22289;SDS011;11313;50.116;8.424;2023-04-12T00:58:17;2.13;;;1.48;;
22289;SDS011;11313;50.116;8.424;2023-04-12T01:00:43;1.52;;;1.42;;
22289;SDS011;11313;50.116;8.424;2023-04-12T01:03:16;1.52;;;1.40;;
22289;SDS011;11313;50.116;8.424;2023-04-12T01:06:12;1.83;;;1.30;;
22289;SDS011;11313;50.116;8.424;2023-04-12T01:08:52;2.05;;;1.40;;
22289;SDS011;11313;50.116;8.424;2023-04-12T01:11:37;2.38;;;1.35;;
22289;SDS011;11313;50.116;8.424;2023-04-12T01:16:50;1.50;;;1.35;;
22289;SDS011;11313;50.116;8.424;2023-04-12T01:19:40;1.73;;;1.30;;
22289;SDS011;11313;50.116;8.424;2023-04-12T01:24:58;1.77;;;1.27;;
22289;SDS011;11313;50.116;8.424;2023-04-12T01:27:29;2.53;;;1.42;;
22289;SDS011;11313;50.116;8.424;2023-04-12T01:30:04;1.58;;;1.20;;
22289;SDS011;11313;50.116;8.424;2023-04-12T01:32:32;2.20;;;1.30;;
22289;SDS011;11313;50.116;8.424;2023-04-12T01:34:59;2.03;;;1.20;;
22289;SDS011;11313;50.116;8.424;2023-04-12T01:37:27;1.73;;;1.30;;
22289;SDS011;11313;50.116;8.424;2023-04-12T01:39:53;1.52;;;1.42;;
22289;SDS011;11313;50.116;8.424;2023-04-12T01:42:19;2.20;;;1.50;;
22289;SDS011;11313;50.116;8.424;2023-04-12T01:44:44;2.38;;;1.50;;
22289;SDS011;11313;50.116;8.424;2023-04-12T01:47:10;1.92;;;1.45;;
22289;SDS011;11313;50.116;8.424;2023-04-12T01:49:38;2.63;;;1.50;;
22289;SDS011;11313;50.116;8.424;2023-04-12T01:52:11;1.92;;;1.42;;
22289;SDS011;11313;50.116;8.424;2023-04-12T01:54:43;2.33;;;1.33;;
22289;SDS011;11313;50.116;8.424;2023-04-12T01:57:12;3.03;;;1.45;;
22289;SDS011;11313;50.116;8.424;2023-04-12T01:59:39;2.42;;;1.40;;
22289;SDS011;11313;50.116;8.424;2023-04-12T02:02:07;1.95;;;1.20;;
22289;SDS011;11313;50.116;8.424;2023-04-12T02:04:34;1.45;;;1.20;;
22289;SDS011;11313;50.116;8.424;2023-04-12T02:07:00;1.95;;;1.20;;
22289;SDS011;11313;50.116;8.424;2023-04-12T02:09:26;2.08;;;1.10;;
22289;SDS011;11313;50.116;8.424;2023-04-12T02:11:52;2.33;;;1.20;;
22289;SDS011;11313;50.116;8.424;2023-04-12T02:14:17;1.85;;;1.20;;
22289;SDS011;11313;50.116;8.424;2023-04-12T02:16:43;2.90;;;1.60;;
22289;SDS011;11313;50.116;8.424;2023-04-12T02:19:10;1.83;;;1.23;;
22289;SDS011;11313;50.116;8.424;2023-04-12T02:21:42;2.78;;;1.33;;
22289;SDS011;11313;50.116;8.424;2023-04-12T02:24:09;2.70;;;1.67;;
22289;SDS011;11313;50.116;8.424;2023-04-12T02:26:35;1.55;;;1.10;;
22289;SDS011;11313;50.116;8.424;2023-04-12T02:29:02;1.90;;;1.30;;
22289;SDS011;11313;50.116;8.424;2023-04-12T02:31:31;3.58;;;1.40;;
22289;SDS011;11313;50.116;8.424;2023-04-12T02:33:57;22.42;;;21.15;;
22289;SDS011;11313;50.116;8.424;2023-04-12T02:36:23;38.65;;;36.55;;
22289;SDS011;11313;50.116;8.424;2023-04-12T02:38:48;37.47;;;35.38;;
22289;SDS011;11313;50.116;8.424;2023-04-12T02:41:17;44.28;;;41.80;;
22289;SDS011;11313;50.116;8.424;2023-04-12T02:43:43;34.03;;;32.13;;
22289;SDS011;11313;50.116;8.424;2023-04-12T02:46:09;32.85;;;31.00;;
22289;SDS011;11313;50.116;8.424;2023-04-12T02:48:37;29.50;;;27.90;;
22289;SDS011;11313;50.116;8.424;2023-04-12T02:51:03;28.50;;;26.90;;
22289;SDS011;11313;50.116;8.424;2023-04-12T02:53:28;30.58;;;28.90;;
22289;SDS011;11313;50.116;8.424;2023-04-12T02:55:54;32.38;;;30.60;;
22289;SDS011;11313;50.116;8.424;2023-04-12T02:58:21;34.53;;;32.63;;
22289;SDS011;11313;50.116;8.424;2023-04-12T03:00:48;35.00;;;33.10;;
22289;SDS011;11313;50.116;8.424;2023-04-12T03:03:13;31.83;;;30.08;;
22289;SDS011;11313;50.116;8.424;2023-04-12T03:05:41;35.15;;;33.20;;
22289;SDS011;11313;50.116;8.424;2023-04-12T03:08:11;43.97;;;41.53;;
22289;SDS011;11313;50.116;8.424;2023-04-12T03:10:37;38.05;;;35.97;;
22289;SDS011;11313;50.116;8.424;2023-04-12T03:13:03;38.65;;;36.53;;
22289;SDS011;11313;50.116;8.424;2023-04-12T03:15:29;37.33;;;35.22;;
22289;SDS011;11313;50.116;8.424;2023-04-12T03:17:55;35.28;;;33.38;;
22289;SDS011;11313;50.116;8.424;2023-04-12T03:20:20;37.85;;;35.75;;
22289;SDS011;11313;50.116;8.424;2023-04-12T03:22:48;39.38;;;37.22;;
22289;SDS011;11313;50.116;8.424;2023-04-12T03:25:14;33.55;;;31.75;;
22289;SDS011;11313;50.116;8.424;2023-04-12T03:27:42;36.83;;;34.80;;
22289;SDS011;11313;50.116;8.424;2023-04-12T03:30:08;38.20;;;36.08;;
22289;SDS011;11313;50.116;8.424;2023-04-12T03:32:35;33.92;;;32.05;;
22289;SDS011;11313;50.116;8.424;2023-04-12T03:35:01;37.60;;;35.45;;
22289;SDS011;11313;50.116;8.424;2023-04-12T03:37:27;33.38;;;31.52;;
22289;SDS011;11313;50.116;8.424;2023-04-12T03:39:52;30.00;;;28.35;;
22289;SDS011;11313;50.116;8.424;2023-04-12T03:42:18;35.70;;;33.70;;
22289;SDS011;11313;50.116;8.424;2023-04-12T03:44:44;46.05;;;43.53;;
22289;SDS011;11313;50.116;8.424;2023-04-12T03:47:09;36.25;;;34.25;;
22289;SDS011;11313;50.116;8.424;2023-04-12T03:49:35;47.00;;;44.40;;
22289;SDS011;11313;50.116;8.424;2023-04-12T03:52:02;44.65;;;42.20;;
22289;SDS011;11313;50.116;8.424;2023-04-12T03:54:29;43.83;;;41.33;;
22289;SDS011;11313;50.116;8.424;2023-04-12T03:56:54;30.58;;;28.92;;
22289;SDS011;11313;50.116;8.424;2023-04-12T03:59:20;36.88;;;34.90;;
22289;SDS011;11313;50.116;8.424;2023-04-12T04:01:46;36.28;;;34.25;;
22289;SDS011;11313;50.116;8.424;2023-04-12T04:04:12;42.78;;;40.42;;
22289;SDS011;11313;50.116;8.424;2023-04-12T04:06:37;39.35;;;37.20;;
22289;SDS011;11313;50.116;8.424;2023-04-12T04:09:03;35.85;;;33.85;;
22289;SDS011;11313;50.116;8.424;2023-04-12T04:11:29;48.67;;;46.08;;
22289;SDS011;11313;50.116;8.424;2023-04-12T04:13:55;44.75;;;42.30;;
22289;SDS011;11313;50.116;8.424;2023-04-12T04:16:21;45.05;;;42.65;;
22289;SDS011;11313;50.116;8.424;2023-04-12T04:18:47;36.85;;;34.83;;
22289;SDS011;11313;50.116;8.424;2023-04-12T04:21:12;38.45;;;36.30;;
22289;SDS011;11313;50.116;8.424;2023-04-12T04:23:41;38.92;;;36.83;;
22289;SDS011;11313;50.116;8.424;2023-04-12T04:26:08;29.77;;;28.17;;
22289;SDS011;11313;50.116;8.424;2023-04-12T04:28:38;37.88;;;35.83;;
22289;SDS011;11313;50.116;8.424;2023-04-12T04:31:14;36.42;;;34.40;;
22289;SDS011;11313;50.116;8.424;2023-04-12T04:33:41;38.95;;;36.80;;
22289;SDS011;11313;50.116;8.424;2023-04-12T04:36:07;33.47;;;31.65;;
22289;SDS011;11313;50.116;8.424;2023-04-12T04:38:33;37.78;;;35.78;;
22289;SDS011;11313;50.116;8.424;2023-04-12T04:40:59;40.85;;;38.60;;
22289;SDS011;11313;50.116;8.424;2023-04-12T04:43:29;35.42;;;33.42;;
22289;SDS011;11313;50.116;8.424;2023-04-12T04:45:55;42.35;;;39.90;;
22289;SDS011;11313;50.116;8.424;2023-04-12T04:48:22;39.65;;;37.45;;
22289;SDS011;11313;50.116;8.424;2023-04-12T04:50:48;40.30;;;38.10;;
22289;SDS011;11313;50.116;8.424;2023-04-12T04:53:16;42.40;;;40.10;;
22289;SDS011;11313;50.116;8.424;2023-04-12T04:55:42;40.55;;;38.35;;
22289;SDS011;11313;50.116;8.424;2023-04-12T04:58:08;38.38;;;36.28;;
22289;SDS011;11313;50.116;8.424;2023-04-12T05:00:34;42.80;;;40.38;;
22289;SDS011;11313;50.116;8.424;2023-04-12T05:03:00;39.25;;;37.05;;
22289;SDS011;11313;50.116;8.424;2023-04-12T05:05:26;45.92;;;43.33;;
22289;SDS011;11313;50.116;8.424;2023-04-12T05:07:52;41.38;;;39.17;;
22289;SDS011;11313;50.116;8.424;2023-04-12T05:10:19;39.80;;;37.63;;
22289;SDS011;11313;50.116;8.424;2023-04-12T05:12:44;38.22;;;36.15;;
22289;SDS011;11313;50.116;8.424;2023-04-12T05:15:10;35.80;;;33.80;;
22289;SDS011;11313;50.116;8.424;2023-04-12T05:17:35;38.10;;;36.03;;
22289;SDS011;11313;50.116;8.424;2023-04-12T05:20:01;42.35;;;39.85;;
22289;SDS011;11313;50.116;8.424;2023-04-12T05:22:30;37.22;;;34.90;;
22289;SDS011;11313;50.116;8.424;2023-04-12T05:24:56;42.78;;;40.17;;
22289;SDS011;11313;50.116;8.424;2023-04-12T05:27:22;38.95;;;36.67;;
22289;SDS011;11313;50.116;8.424;2023-04-12T05:29:48;35.00;;;33.03;;
22289;SDS011;11313;50.116;8.424;2023-04-12T05:32:13;39.55;;;37.25;;
22289;SDS011;11313;50.116;8.424;2023-04-12T05:34:39;42.85;;;40.40;;
22289;SDS011;11313;50.116;8.424;2023-04-12T05:37:06;28.98;;;27.38;;
22289;SDS011;11313;50.116;8.424;2023-04-12T05:39:32;34.63;;;32.72;;
22289;SDS011;11313;50.116;8.424;2023-04-12T05:41:57;37.35;;;35.28;;
22289;SDS011;11313;50.116;8.424;2023-04-12T05:44:23;26.63;;;25.02;;
22289;SDS011;11313;50.116;8.424;2023-04-12T05:46:48;38.53;;;36.33;;
22289;SDS011;11313;50.116;8.424;2023-04-12T05:49:14;27.33;;;25.83;;
22289;SDS011;11313;50.116;8.424;2023-04-12T05:51:40;37.88;;;35.67;;
22289;SDS011;11313;50.116;8.424;2023-04-12T05:54:05;40.22;;;38.03;;
22289;SDS011;11313;50.116;8.424;2023-04-12T05:56:31;43.63;;;41.22;;
22289;SDS011;11313;50.116;8.424;2023-04-12T05:58:57;41.40;;;38.95;;
22289;SDS011;11313;50.116;8.424;2023-04-12T06:01:23;45.05;;;42.35;;
22289;SDS011;11313;50.116;8.424;2023-04-12T06:03:54;39.10;;;36.97;;
22289;SDS011;11313;50.116;8.424;2023-04-12T06:06:20;29.15;;;27.20;;
22289;SDS011;11313;50.116;8.424;2023-04-12T06:08:45;42.13;;;39.53;;
22289;SDS011;11313;50.116;8.424;2023-04-12T06:11:11;34.80;;;32.45;;
22289;SDS011;11313;50.116;8.424;2023-04-12T06:13:37;33.35;;;31.30;;
22289;SDS011;11313;50.116;8.424;2023-04-12T06:16:03;28.70;;;26.67;;
22289;SDS011;11313;50.116;8.424;2023-04-12T06:18:29;34.10;;;31.77;;
22289;SDS011;11313;50.116;8.424;2023-04-12T06:20:54;23.10;;;21.52;;
22289;SDS011;11313;50.116;8.424;2023-04-12T06:23:21;34.30;;;31.90;;
22289;SDS011;11313;50.116;8.424;2023-04-12T06:25:46;37.50;;;35.10;;
22289;SDS011;11313;50.116;8.424;2023-04-12T06:28:12;37.00;;;34.55;;
22289;SDS011;11313;50.116;8.424;2023-04-12T06:30:37;19.65;;;18.35;;
22289;SDS011;11313;50.116;8.424;2023-04-12T06:33:03;30.67;;;28.77;;
22289;SDS011;11313;50.116;8.424;2023-04-12T06:35:28;31.52;;;29.33;;
22289;SDS011;11313;50.116;8.424;2023-04-12T06:37:54;28.55;;;26.33;;
22289;SDS011;11313;50.116;8.424;2023-04-12T06:40:19;39.20;;;36.90;;
22289;SDS011;11313;50.116;8.424;2023-04-12T06:42:45;32.30;;;30.20;;
22289;SDS011;11313;50.116;8.424;2023-04-12T06:45:11;29.52;;;27.60;;
22289;SDS011;11313;50.116;8.424;2023-04-12T06:47:36;21.40;;;19.63;;
22289;SDS011;11313;50.116;8.424;2023-04-12T06:50:02;38.80;;;36.28;;
22289;SDS011;11313;50.116;8.424;2023-04-12T06:52:27;34.90;;;32.33;;
22289;SDS011;11313;50.116;8.424;2023-04-12T06:54:54;40.83;;;38.28;;
22289;SDS011;11313;50.116;8.424;2023-04-12T06:57:20;29.63;;;27.35;;
22289;SDS011;11313;50.116;8.424;2023-04-12T06:59:46;31.20;;;29.38;;
22289;SDS011;11313;50.116;8.424;2023-04-12T07:02:11;35.03;;;32.60;;
22289;SDS011;11313;50.116;8.424;2023-04-12T07:04:37;31.92;;;29.70;;
22289;SDS011;11313;50.116;8.424;2023-04-12T07:07:02;34.92;;;32.75;;
22289;SDS011;11313;50.116;8.424;2023-04-12T07:09:30;21.02;;;19.70;;
22289;SDS011;11313;50.116;8.424;2023-04-12T07:11:56;38.80;;;36.25;;
22289;SDS011;11313;50.116;8.424;2023-04-12T07:14:22;38.33;;;35.92;;
22289;SDS011;11313;50.116;8.424;2023-04-12T07:16:48;22.60;;;21.13;;
22289;SDS011;11313;50.116;8.424;2023-04-12T07:19:13;33.33;;;31.38;;
22289;SDS011;11313;50.116;8.424;2023-04-12T07:21:40;40.60;;;38.15;;
22289;SDS011;11313;50.116;8.424;2023-04-12T07:24:05;36.63;;;34.33;;
22289;SDS011;11313;50.116;8.424;2023-04-12T07:26:31;36.90;;;34.47;;
22289;SDS011;11313;50.116;8.424;2023-04-12T07:28:56;29.60;;;27.60;;
22289;SDS011;11313;50.116;8.424;2023-04-12T07:31:22;39.13;;;36.72;;
22289;SDS011;11313;50.116;8.424;2023-04-12T07:33:48;41.08;;;38.72;;
22289;SDS011;11313;50.116;8.424;2023-04-12T07:36:13;32.17;;;30.17;;
22289;SDS011;11313;50.116;8.424;2023-04-12T07:38:40;43.97;;;41.20;;
22289;SDS011;11313;50.116;8.424;2023-04-12T07:41:06;40.72;;;38.33;;
22289;SDS011;11313;50.116;8.424;2023-04-12T07:43:31;33.13;;;31.13;;
22289;SDS011;11313;50.116;8.424;2023-04-12T07:45:57;30.42;;;28.70;;
22289;SDS011;11313;50.116;8.424;2023-04-12T07:48:23;37.00;;;34.95;;
22289;SDS011;11313;50.116;8.424;2023-04-12T07:50:48;40.13;;;37.88;;
22289;SDS011;11313;50.116;8.424;2023-04-12T07:53:22;33.10;;;31.08;;
22289;SDS011;11313;50.116;8.424;2023-04-12T07:55:50;36.03;;;33.60;;
22289;SDS011;11313;50.116;8.424;2023-04-12T07:58:16;31.73;;;29.90;;
22289;SDS011;11313;50.116;8.424;2023-04-12T08:00:43;36.17;;;34.08;;
22289;SDS011;11313;50.116;8.424;2023-04-12T08:03:12;33.17;;;31.30;;
22289;SDS011;11313;50.116;8.424;2023-04-12T08:05:39;33.00;;;30.98;;
22289;SDS011;11313;50.116;8.424;2023-04-12T08:08:05;38.65;;;36.30;;
22289;SDS011;11313;50.116;8.424;2023-04-12T08:10:31;40.95;;;38.55;;
22289;SDS011;11313;50.116;8.424;2023-04-12T08:12:56;33.55;;;31.70;;
22289;SDS011;11313;50.116;8.424;2023-04-12T08:15:22;37.60;;;35.40;;
22289;SDS011;11313;50.116;8.424;2023-04-12T08:17:48;34.60;;;32.60;;
22289;SDS011;11313;50.116;8.424;2023-04-12T08:20:14;26.67;;;24.95;;
22289;SDS011;11313;50.116;8.424;2023-04-12T08:22:43;37.08;;;34.95;;
22289;SDS011;11313;50.116;8.424;2023-04-12T08:25:10;30.35;;;28.45;;
22289;SDS011;11313;50.116;8.424;2023-04-12T08:27:35;32.17;;;30.27;;
22289;SDS011;11313;50.116;8.424;2023-04-12T08:30:03;18.55;;;17.45;;
22289;SDS011;11313;50.116;8.424;2023-04-12T08:32:29;41.65;;;39.20;;
22289;SDS011;11313;50.116;8.424;2023-04-12T08:34:55;37.25;;;35.08;;
22289;SDS011;11313;50.116;8.424;2023-04-12T08:37:21;43.20;;;40.55;;
22289;SDS011;11313;50.116;8.424;2023-04-12T08:39:46;38.42;;;36.08;;
22289;SDS011;11313;50.116;8.424;2023-04-12T08:42:12;40.58;;;38.35;;
22289;SDS011;11313;50.116;8.424;2023-04-12T08:44:40;40.20;;;37.85;;
22289;SDS011;11313;50.116;8.424;2023-04-12T08:47:06;31.33;;;29.63;;
22289;SDS011;11313;50.116;8.424;2023-04-12T08:49:33;38.08;;;35.88;;
22289;SDS011;11313;50.116;8.424;2023-04-12T08:52:00;34.53;;;32.60;;
22289;SDS011;11313;50.116;8.424;2023-04-12T08:54:29;35.85;;;33.85;;
22289;SDS011;11313;50.116;8.424;2023-04-12T08:56:55;23.65;;;22.33;;
22289;SDS011;11313;50.116;8.424;2023-04-12T08:59:25;19.83;;;18.75;;
22289;SDS011;11313;50.116;8.424;2023-04-12T09:01:51;39.05;;;36.78;;
22289;SDS011;11313;50.116;8.424;2023-04-12T09:04:18;39.35;;;37.20;;
22289;SDS011;11313;50.116;8.424;2023-04-12T09:06:43;25.88;;;24.50;;
22289;SDS011;11313;50.116;8.424;2023-04-12T09:09:09;39.38;;;37.15;;
22289;SDS011;11313;50.116;8.424;2023-04-12T09:11:35;30.08;;;28.45;;
22289;SDS011;11313;50.116;8.424;2023-04-12T09:14:01;32.90;;;31.08;;
22289;SDS011;11313;50.116;8.424;2023-04-12T09:16:39;35.72;;;33.78;;
22289;SDS011;11313;50.116;8.424;2023-04-12T09:19:06;17.30;;;16.30;;
22289;SDS011;11313;50.116;8.424;2023-04-12T09:21:32;39.05;;;36.72;;
22289;SDS011;11313;50.116;8.424;2023-04-12T09:24:06;43.38;;;41.05;;
22289;SDS011;11313;50.116;8.424;2023-04-12T09:26:33;43.15;;;40.75;;
22289;SDS011;11313;50.116;8.424;2023-04-12T09:29:00;31.65;;;29.80;;
22289;SDS011;11313;50.116;8.424;2023-04-12T09:31:26;37.97;;;35.70;;
22289;SDS011;11313;50.116;8.424;2023-04-12T09:33:51;35.53;;;33.60;;
22289;SDS011;11313;50.116;8.424;2023-04-12T09:36:24;23.65;;;22.20;;
22289;SDS011;11313;50.116;8.424;2023-04-12T09:39:02;32.05;;;30.25;;
22289;SDS011;11313;50.116;8.424;2023-04-12T09:41:29;37.45;;;35.35;;
22289;SDS011;11313;50.116;8.424;2023-04-12T09:43:56;46.97;;;44.38;;
22289;SDS011;11313;50.116;8.424;2023-04-12T09:46:25;39.60;;;37.35;;
22289;SDS011;11313;50.116;8.424;2023-04-12T09:48:51;38.25;;;36.03;;
22289;SDS011;11313;50.116;8.424;2023-04-12T09:51:24;43.00;;;40.67;;
22289;SDS011;11313;50.116;8.424;2023-04-12T09:53:59;37.95;;;35.95;;
22289;SDS011;11313;50.116;8.424;2023-04-12T09:56:29;43.72;;;41.33;;
22289;SDS011;11313;50.116;8.424;2023-04-12T10:01:25;41.42;;;39.20;;
22289;SDS011;11313;50.116;8.424;2023-04-12T10:03:51;45.10;;;42.60;;
22289;SDS011;11313;50.116;8.424;2023-04-12T10:06:19;48.65;;;45.80;;
22289;SDS011;11313;50.116;8.424;2023-04-12T10:08:46;24.33;;;22.98;;
22289;SDS011;11313;50.116;8.424;2023-04-12T10:11:13;26.70;;;25.23;;
22289;SDS011;11313;50.116;8.424;2023-04-12T10:13:38;34.28;;;32.42;;
22289;SDS011;11313;50.116;8.424;2023-04-12T10:16:06;28.95;;;27.35;;
22289;SDS011;11313;50.116;8.424;2023-04-12T10:18:34;34.08;;;32.30;;
22289;SDS011;11313;50.116;8.424;2023-04-12T10:21:03;40.17;;;37.92;;
22289;SDS011;11313;50.116;8.424;2023-04-12T10:23:32;43.28;;;40.85;;
22289;SDS011;11313;50.116;8.424;2023-04-12T10:25:58;41.55;;;39.25;;
22289;SDS011;11313;50.116;8.424;2023-04-12T10:28:24;45.72;;;43.22;;
22289;SDS011;11313;50.116;8.424;2023-04-12T10:30:50;34.63;;;32.83;;
22289;SDS011;11313;50.116;8.424;2023-04-12T10:33:23;36.85;;;34.85;;
22289;SDS011;11313;50.116;8.424;2023-04-12T10:35:55;41.90;;;39.65;;
22289;SDS011;11313;50.116;8.424;2023-04-12T10:38:24;42.13;;;39.85;;
22289;SDS011;11313;50.116;8.424;2023-04-12T10:43:39;36.67;;;34.55;;
22289;SDS011;11313;50.116;8.424;2023-04-12T10:46:05;28.17;;;26.63;;
22289;SDS011;11313;50.116;8.424;2023-04-12T10:48:31;33.20;;;31.45;;
22289;SDS011;11313;50.116;8.424;2023-04-12T10:53:52;33.47;;;31.60;;
22289;SDS011;11313;50.116;8.424;2023-04-12T10:56:45;32.30;;;30.40;;
22289;SDS011;11313;50.116;8.424;2023-04-12T10:59:14;25.38;;;23.88;;
22289;SDS011;11313;50.116;8.424;2023-04-12T11:01:41;37.92;;;35.60;;
22289;SDS011;11313;50.116;8.424;2023-04-12T11:04:26;44.58;;;42.13;;
22289;SDS011;11313;50.116;8.424;2023-04-12T11:09:27;41.40;;;39.05;;
22289;SDS011;11313;50.116;8.424;2023-04-12T11:14:33;27.85;;;26.35;;
22289;SDS011;11313;50.116;8.424;2023-04-12T11:19:40;35.42;;;33.50;;
22289;SDS011;11313;50.116;8.424;2023-04-12T11:22:11;39.13;;;36.92;;
22289;SDS011;11313;50.116;8.424;2023-04-12T11:24:38;35.25;;;33.17;;
22289;SDS011;11313;50.116;8.424;2023-04-12T11:27:06;40.85;;;38.35;;
22289;SDS011;11313;50.116;8.424;2023-04-12T11:29:32;34.83;;;32.90;;
22289;SDS011;11313;50.116;8.424;2023-04-12T11:31:58;35.90;;;33.90;;
22289;SDS011;11313;50.116;8.424;2023-04-12T11:34:26;35.17;;;33.08;;
22289;SDS011;11313;50.116;8.424;2023-04-12T11:36:56;34.33;;;32.35;;
22289;SDS011;11313;50.116;8.424;2023-04-12T11:39:23;37.30;;;35.20;;
22289;SDS011;11313;50.116;8.424;2023-04-12T11:41:52;42.05;;;39.67;;
22289;SDS011;11313;50.116;8.424;2023-04-12T11:44:18;35.70;;;33.72;;
22289;SDS011;11313;50.116;8.424;2023-04-12T11:46:45;31.83;;;30.02;;
22289;SDS011;11313;50.116;8.424;2023-04-12T11:49:15;33.65;;;31.75;;
22289;SDS011;11313;50.116;8.424;2023-04-12T11:51:44;35.45;;;33.42;;
22289;SDS011;11313;50.116;8.424;2023-04-12T11:54:11;35.78;;;33.78;;
22289;SDS011;11313;50.116;8.424;2023-04-12T11:56:37;36.00;;;34.00;;
22289;SDS011;11313;50.116;8.424;2023-04-12T11:59:03;37.67;;;35.63;;
22289;SDS011;11313;50.116;8.424;2023-04-12T12:01:29;33.63;;;31.73;;
22289;SDS011;11313;50.116;8.424;2023-04-12T12:03:56;36.70;;;34.70;;
22289;SDS011;11313;50.116;8.424;2023-04-12T12:06:25;36.22;;;34.25;;
22289;SDS011;11313;50.116;8.424;2023-04-12T12:08:51;45.53;;;42.97;;
22289;SDS011;11313;50.116;8.424;2023-04-12T12:11:19;33.45;;;31.63;;
22289;SDS011;11313;50.116;8.424;2023-04-12T12:13:46;35.72;;;33.70;;
22289;SDS011;11313;50.116;8.424;2023-04-12T12:16:17;31.02;;;29.35;;
22289;SDS011;11313;50.116;8.424;2023-04-12T12:18:47;34.90;;;33.05;;
22289;SDS011;11313;50.116;8.424;2023-04-12T12:21:13;30.58;;;28.83;;
22289;SDS011;11313;50.116;8.424;2023-04-12T12:23:44;34.78;;;32.78;;
22289;SDS011;11313;50.116;8.424;2023-04-12T12:26:23;28.48;;;26.90;;
22289;SDS011;11313;50.116;8.424;2023-04-12T12:28:51;40.50;;;38.27;;
22289;SDS011;11313;50.116;8.424;2023-04-12T12:31:18;33.83;;;31.90;;
22289;SDS011;11313;50.116;8.424;2023-04-12T12:33:45;36.20;;;34.25;;
22289;SDS011;11313;50.116;8.424;2023-04-12T12:36:11;30.90;;;29.23;;
22289;SDS011;11313;50.116;8.424;2023-04-12T12:38:38;35.83;;;33.83;;
22289;SDS011;11313;50.116;8.424;2023-04-12T12:43:47;38.28;;;36.13;;
22289;SDS011;11313;50.116;8.424;2023-04-12T12:46:14;37.92;;;35.90;;
22289;SDS011;11313;50.116;8.424;2023-04-12T12:48:41;30.73;;;29.05;;
22289;SDS011;11313;50.116;8.424;2023-04-12T12:51:08;37.95;;;35.90;;
22289;SDS011;11313;50.116;8.424;2023-04-12T12:53:40;37.78;;;35.67;;
22289;SDS011;11313;50.116;8.424;2023-04-12T12:56:09;35.17;;;33.30;;
22289;SDS011;11313;50.116;8.424;2023-04-12T12:58:35;41.83;;;39.55;;
22289;SDS011;11313;50.116;8.424;2023-04-12T13:01:01;32.85;;;31.05;;
22289;SDS011;11313;50.116;8.424;2023-04-12T13:03:28;37.15;;;35.15;;
22289;SDS011;11313;50.116;8.424;2023-04-12T13:05:54;37.65;;;35.63;;
22289;SDS011;11313;50.116;8.424;2023-04-12T13:08:20;32.65;;;30.88;;
22289;SDS011;11313;50.116;8.424;2023-04-12T13:10:46;39.50;;;37.28;;
22289;SDS011;11313;50.116;8.424;2023-04-12T13:13:11;35.80;;;33.90;;
22289;SDS011;11313;50.116;8.424;2023-04-12T13:15:37;43.15;;;40.83;;
22289;SDS011;11313;50.116;8.424;2023-04-12T13:18:02;38.42;;;36.33;;
22289;SDS011;11313;50.116;8.424;2023-04-12T13:20:28;37.25;;;35.17;;
22289;SDS011;11313;50.116;8.424;2023-04-12T13:22:53;29.05;;;27.45;;
22289;SDS011;11313;50.116;8.424;2023-04-12T13:25:19;39.13;;;37.00;;
22289;SDS011;11313;50.116;8.424;2023-04-12T13:27:48;35.70;;;33.78;;
22289;SDS011;11313;50.116;8.424;2023-04-12T13:30:15;34.15;;;32.25;;
22289;SDS011;11313;50.116;8.424;2023-04-12T13:32:41;31.20;;;29.45;;
22289;SDS011;11313;50.116;8.424;2023-04-12T13:35:08;35.10;;;33.22;;
22289;SDS011;11313;50.116;8.424;2023-04-12T13:37:34;30.27;;;28.60;;
22289;SDS011;11313;50.116;8.424;2023-04-12T13:40:00;36.47;;;34.38;;
22289;SDS011;11313;50.116;8.424;2023-04-12T13:42:26;38.67;;;36.38;;
22289;SDS011;11313;50.116;8.424;2023-04-12T13:44:51;41.80;;;39.53;;
22289;SDS011;11313;50.116;8.424;2023-04-12T13:47:17;38.97;;;36.67;;
22289;SDS011;11313;50.116;8.424;2023-04-12T13:49:42;35.40;;;33.10;;
22289;SDS011;11313;50.116;8.424;2023-04-12T13:52:08;39.95;;;37.78;;
22289;SDS011;11313;50.116;8.424;2023-04-12T13:54:33;41.95;;;39.67;;
22289;SDS011;11313;50.116;8.424;2023-04-12T13:56:59;31.98;;;30.25;;
22289;SDS011;11313;50.116;8.424;2023-04-12T13:59:26;33.47;;;31.58;;
22289;SDS011;11313;50.116;8.424;2023-04-12T14:01:51;33.05;;;31.23;;
22289;SDS011;11313;50.116;8.424;2023-04-12T14:04:17;39.50;;;37.40;;
22289;SDS011;11313;50.116;8.424;2023-04-12T14:06:42;28.50;;;26.95;;
22289;SDS011;11313;50.116;8.424;2023-04-12T14:09:09;32.50;;;30.77;;
22289;SDS011;11313;50.116;8.424;2023-04-12T14:11:46;31.73;;;29.98;;
22289;SDS011;11313;50.116;8.424;2023-04-12T14:14:12;25.88;;;24.45;;
22289;SDS011;11313;50.116;8.424;2023-04-12T14:16:38;23.40;;;22.02;;
22289;SDS011;11313;50.116;8.424;2023-04-12T14:19:04;21.13;;;19.92;;
22289;SDS011;11313;50.116;8.424;2023-04-12T14:21:29;35.33;;;33.28;;
22289;SDS011;11313;50.116;8.424;2023-04-12T14:23:55;17.35;;;16.35;;
22289;SDS011;11313;50.116;8.424;2023-04-12T14:26:20;15.45;;;14.38;;
22289;SDS011;11313;50.116;8.424;2023-04-12T14:28:46;10.43;;;9.52;;
22289;SDS011;11313;50.116;8.424;2023-04-12T14:31:13;12.57;;;11.55;;
22289;SDS011;11313;50.116;8.424;2023-04-12T14:33:42;9.85;;;9.23;;
22289;SDS011;11313;50.116;8.424;2023-04-12T14:36:07;5.60;;;3.80;;
22289;SDS011;11313;50.116;8.424;2023-04-12T14:38:33;7.10;;;6.53;;
22289;SDS011;11313;50.116;8.424;2023-04-12T14:40:59;4.63;;;1.20;;
22289;SDS011;11313;50.116;8.424;2023-04-12T14:43:25;3.75;;;0.80;;
22289;SDS011;11313;50.116;8.424;2023-04-12T14:45:51;5.75;;;0.90;;
22289;SDS011;11313;50.116;8.424;2023-04-12T14:48:18;2.75;;;1.00;;
22289;SDS011;11313;50.116;8.424;2023-04-12T14:50:44;2.85;;;0.90;;